createdAt,value
2023-03-07T17:55:51.842Z,10.80
2023-03-07T18:00:56.937Z,10.80
2023-03-07T18:06:02.069Z,10.57
2023-03-07T18:11:11.036Z,9.53
2023-03-07T18:16:16.371Z,9.67
2023-03-07T18:21:23.467Z,8.17
2023-03-07T18:26:31.372Z,10.57
2023-03-07T18:31:38.594Z,9.57
2023-03-07T18:36:44.652Z,11.43
2023-03-07T18:41:52.471Z,13.10
2023-03-07T18:46:57.825Z,11.83
2023-03-07T18:52:03.123Z,12.43
2023-03-07T18:57:10.893Z,11.33
2023-03-07T19:02:16.277Z,10.70
2023-03-07T19:07:23.281Z,15.70
2023-03-07T19:12:31.188Z,12.60
2023-03-07T19:17:41.256Z,12.73
2023-03-07T19:22:46.382Z,12.70
2023-03-07T19:27:54.080Z,11.40
2023-03-07T19:32:59.142Z,13.53
2023-03-07T19:38:04.655Z,12.83
2023-03-07T19:43:12.375Z,13.07
2023-03-07T19:48:17.525Z,14.27
2023-03-07T19:53:22.780Z,11.00
2023-03-07T19:58:30.710Z,10.63
2023-03-07T20:03:35.767Z,10.57
2023-03-07T20:08:40.969Z,9.67
2023-03-07T20:13:50.426Z,7.10
2023-03-07T20:18:55.961Z,8.77
2023-03-07T20:24:01.899Z,9.77
2023-03-07T20:29:10.122Z,9.10
2023-03-07T20:34:15.774Z,8.67
2023-03-07T20:39:20.858Z,12.03
2023-03-07T20:44:29.169Z,9.13
2023-03-07T20:49:34.270Z,9.23
2023-03-07T20:54:40.921Z,9.63
2023-03-07T20:59:48.707Z,7.13
2023-03-07T21:04:54.003Z,7.53
2023-03-07T21:09:59.141Z,7.97
2023-03-07T21:15:08.205Z,7.77
2023-03-07T21:20:17.202Z,8.90
2023-03-07T21:25:22.338Z,7.77
2023-03-07T21:30:34.154Z,8.30
2023-03-07T21:35:42.265Z,10.03
2023-03-07T21:40:47.861Z,10.63
2023-03-07T21:46:00.001Z,9.77
2023-03-07T21:51:05.432Z,9.63
2023-03-07T21:56:12.015Z,13.60
2023-03-07T22:01:21.690Z,7.13
2023-03-07T22:06:27.470Z,7.00
2023-03-07T22:11:33.009Z,7.43
2023-03-07T22:16:40.870Z,8.50
2023-03-07T22:21:46.096Z,5.23
2023-03-07T22:26:51.437Z,7.37
2023-03-07T22:31:59.385Z,5.93
2023-03-07T22:37:04.688Z,7.67
2023-03-07T22:42:10.206Z,6.13
